Park Rapids, Minnesota
Current Conditions -  °F | °C
As of 9:26 PM on Saturday 22 Nov 2014 (Local Time) from KPKD Reporting Station
Haze Haze  
Wind Chill: 22°   Ceiling: 300
Heat Index: 31°   Visibility: 2.5mi
Dew Point: 31°   Wind: 12mph
Humidity: 100%   Direction: 140°SE
Pressure: 29.43"   Gusts: NA
Location:  46.92°N, 95.06°W
Report Text: KPKD 230326Z AUTO 14010KT 2 1/2SM BR OVC003 M01/M01 A2943 RMK AO2 T10061006
Loading
Personal Weather Stations






























Interactive Weather Map New forecast layout! Learn more

10-Day Weather Forecast

Advertisements
Track Severe Weather on mobile